Time;durP1;ratioP1;P1;durP2;ratioP2;P2;SDS_P1;SDS_P2;PMS_P1;PMS_P2;Temp;Humidity;BMP_temperature;BMP_pressure;BME280_temperature;BME280_humidity;BME280_pressure;Samples;Min_cycle;Max_cycle;Signal;HPM_P1;HPM_P2
2022/05/22 00:00:41;;;;;;;12.20;1.92;;;;;;;13.92;61.23;98498.51;1695453;84;21081;-74
2022/05/22 00:03:08;;;;;;;4.62;2.35;;;;;;;13.90;60.99;98519.10;1727558;82;20996;-75
2022/05/22 00:05:35;;;;;;;7.42;2.40;;;;;;;13.89;60.35;98484.25;1724114;83;20924;-78
2022/05/22 00:08:04;;;;;;;5.50;2.35;;;;;;;13.88;60.15;98510.48;1724143;83;21051;-76
2022/05/22 00:10:31;;;;;;;5.55;2.30;;;;;;;13.87;59.83;98489.95;1724083;83;21615;-74
2022/05/22 00:12:57;;;;;;;5.28;2.02;;;;;;;13.86;59.99;98492.40;1727785;82;21417;-75
2022/05/22 00:15:24;;;;;;;7.33;2.62;;;;;;;13.86;59.92;98491.05;1728710;82;20999;-75
2022/05/22 00:17:50;;;;;;;8.90;2.98;;;;;;;13.86;60.05;98512.67;1729321;83;21039;-75
2022/05/22 00:20:18;;;;;;;5.95;1.90;;;;;;;13.85;60.21;98488.12;1727725;83;20960;-75
2022/05/22 00:22:45;;;;;;;10.13;2.25;;;;;;;13.84;60.40;98485.70;1706958;83;20982;-75
2022/05/22 00:25:11;;;;;;;10.55;2.37;;;;;;;13.83;60.61;98478.69;1727862;83;22130;-74
2022/05/22 00:27:40;;;;;;;6.65;2.65;;;;;;;13.81;60.72;98477.63;1727802;82;20992;-74
2022/05/22 00:30:09;;;;;;;6.78;2.02;;;;;;;13.78;60.88;98497.70;1726931;82;21041;-74
2022/05/22 00:32:38;;;;;;;5.30;2.62;;;;;;;13.74;61.02;98486.70;1727771;83;21050;-75
2022/05/22 00:35:06;;;;;;;13.13;2.70;;;;;;;13.70;61.05;98481.66;1727566;82;21052;-75
2022/05/22 00:37:35;;;;;;;4.22;2.85;;;;;;;13.67;61.19;98477.41;1727391;82;21226;-75
2022/05/22 00:40:02;;;;;;;19.48;2.87;;;;;;;13.62;61.14;98487.73;1727772;83;20940;-75
2022/05/22 00:42:30;;;;;;;10.28;2.60;;;;;;;13.60;61.26;98469.69;1706957;83;21007;-75
2022/05/22 00:44:56;;;;;;;9.03;2.60;;;;;;;13.57;61.25;98487.85;1725739;82;20999;-75
2022/05/22 00:47:23;;;;;;;6.35;1.98;;;;;;;13.52;61.26;98491.42;1727866;83;21774;-77
2022/05/22 00:49:55;;;;;;;6.20;2.55;;;;;;;13.49;61.25;98470.97;1727601;83;21233;-78
2022/05/22 00:52:26;;;;;;;9.20;2.25;;;;;;;13.42;61.03;98474.63;1727549;83;21003;-77
2022/05/22 00:55:02;;;;;;;7.37;2.35;;;;;;;13.37;60.97;98472.81;1706736;83;21047;-77
2022/05/22 00:57:35;;;;;;;5.50;2.12;;;;;;;13.31;61.04;98463.74;1726597;82;21014;-77
2022/05/22 01:00:10;;;;;;;9.53;2.02;;;;;;;13.25;60.90;98469.78;1707835;82;21075;-76
2022/05/22 01:05:22;;;;;;;4.20;2.15;;;;;;;13.17;61.18;98465.06;1703228;84;20987;-77
2022/05/22 01:07:49;;;;;;;3.12;2.00;;;;;;;13.11;61.38;98505.38;1702793;84;21069;-77
2022/05/22 01:10:16;;;;;;;3.42;2.15;;;;;;;13.05;61.38;98452.00;1716317;82;20983;-76
2022/05/22 01:12:43;;;;;;;5.05;2.70;;;;;;;13.01;61.46;98450.19;1727798;83;21035;-76
2022/05/22 01:15:11;;;;;;;3.58;1.85;;;;;;;12.96;61.38;98444.88;1726744;82;21194;-76
2022/05/22 01:17:41;;;;;;;5.47;1.90;;;;;;;12.93;61.52;98450.88;1727674;83;21006;-76
2022/05/22 01:20:09;;;;;;;2.70;1.98;;;;;;;12.90;61.55;98469.02;1728650;83;21035;-76
2022/05/22 01:22:36;;;;;;;11.50;2.40;;;;;;;12.86;61.59;98448.54;1704640;83;21103;-76
2022/05/22 01:25:05;;;;;;;5.53;2.17;;;;;;;12.83;61.66;98438.89;1729288;83;20967;-75
2022/05/22 01:27:34;;;;;;;3.75;1.80;;;;;;;12.79;61.76;98466.21;1729208;83;21264;-76
2022/05/22 01:30:19;;;;;;;4.35;1.75;;;;;;;12.75;61.75;98459.27;1722998;83;21064;-75
2022/05/22 01:32:48;;;;;;;2.60;1.55;;;;;;;12.73;61.84;98485.72;1727272;82;21547;-75
2022/05/22 01:35:22;;;;;;;4.80;1.87;;;;;;;12.69;61.80;98461.78;1730042;83;21086;-75
2022/05/22 01:37:49;;;;;;;9.08;2.00;;;;;;;12.67;61.80;98452.62;1729887;83;21035;-75
2022/05/22 01:40:17;;;;;;;5.00;2.08;;;;;;;12.66;61.72;98465.07;1729687;83;22019;-75
2022/05/22 01:42:46;;;;;;;2.67;1.98;;;;;;;12.64;61.80;98420.85;1729695;82;21002;-74
2022/05/22 01:45:18;;;;;;;7.35;2.22;;;;;;;12.63;61.86;98432.73;1729972;82;20972;-75
2022/05/22 01:47:45;;;;;;;5.30;1.92;;;;;;;12.61;61.92;98418.72;1693769;84;20952;-74
2022/05/22 01:50:12;;;;;;;6.03;1.82;;;;;;;12.59;62.06;98426.32;1693689;84;21048;-74
2022/05/22 01:52:39;;;;;;;7.00;2.25;;;;;;;12.56;62.12;98432.86;1703367;82;21158;-76
2022/05/22 01:55:10;;;;;;;3.50;1.90;;;;;;;12.56;62.21;98426.92;1712045;83;21503;-76
2022/05/22 01:57:37;;;;;;;4.25;2.60;;;;;;;12.55;62.33;98433.95;1712295;83;20931;-75
2022/05/22 02:00:09;;;;;;;2.87;1.98;;;;;;;12.52;62.40;98415.09;1711992;83;21019;-75
2022/05/22 02:02:38;;;;;;;4.53;1.70;;;;;;;12.50;62.51;98417.84;1712859;82;21007;-76
2022/05/22 02:05:05;;;;;;;1.82;1.57;;;;;;;12.48;62.69;98423.52;1729368;83;21968;-75
2022/05/22 02:10:19;;;;;;;4.03;1.62;;;;;;;12.42;63.28;98409.08;1701867;83;20972;-77
2022/05/22 02:12:48;;;;;;;1.82;1.32;;;;;;;12.41;63.52;98416.91;1721896;83;20929;-75
2022/05/22 02:15:15;;;;;;;3.92;1.47;;;;;;;12.38;63.74;98410.73;1721959;83;21056;-76
2022/05/22 02:17:42;;;;;;;4.10;1.60;;;;;;;12.35;64.01;98428.30;1722033;82;21084;-76
2022/05/22 02:20:10;;;;;;;4.62;1.95;;;;;;;12.33;64.28;98411.61;1721900;83;20933;-77
2022/05/22 02:22:44;;;;;;;3.83;1.65;;;;;;;12.32;64.61;98427.55;1700157;83;21564;-78
2022/05/22 02:25:15;;;;;;;3.12;1.50;;;;;;;12.30;64.74;98399.27;1722364;82;21056;-78
2022/05/22 02:27:43;;;;;;;3.30;1.77;;;;;;;12.28;65.03;98402.82;1724225;83;21079;-77
2022/05/22 02:30:12;;;;;;;1.72;1.30;;;;;;;12.27;65.26;98396.62;1725779;82;21090;-77
2022/05/22 02:32:38;;;;;;;1.87;1.42;;;;;;;12.24;65.54;98391.80;1706655;83;20992;-75
2022/05/22 02:35:08;;;;;;;4.90;1.20;;;;;;;12.21;65.77;98382.41;1729790;82;20888;-75
2022/05/22 02:37:48;;;;;;;1.80;1.22;;;;;;;12.21;65.83;98390.50;1729759;82;20932;-75
2022/05/22 02:40:25;;;;;;;4.42;1.22;;;;;;;12.19;66.09;98398.61;1728700;83;21016;-75
2022/05/22 02:42:54;;;;;;;2.05;1.92;;;;;;;12.16;66.24;98410.79;1729763;83;21372;-74
2022/05/22 02:45:29;;;;;;;2.87;1.17;;;;;;;12.14;66.42;98379.81;1728969;82;20980;-74
2022/05/22 02:47:57;;;;;;;1.85;1.35;;;;;;;12.13;66.58;98383.63;1728787;83;20932;-75
2022/05/22 02:50:26;;;;;;;1.92;1.50;;;;;;;12.13;66.71;98387.67;1723978;82;20967;-73
2022/05/22 02:52:54;;;;;;;2.35;1.55;;;;;;;12.11;66.86;98375.02;1724200;83;21051;-76
2022/05/22 02:55:23;;;;;;;10.15;1.40;;;;;;;12.12;66.95;98394.14;1697772;83;21121;-75
2022/05/22 02:57:50;;;;;;;5.65;1.27;;;;;;;12.11;66.97;98381.76;1692746;82;21544;-74
2022/05/22 03:00:21;;;;;;;3.00;1.57;;;;;;;12.11;67.11;98382.56;1697309;83;21117;-80
2022/05/22 03:02:51;;;;;;;;;;;;;;;12.10;67.20;98377.45;1691113;83;20975;-74
2022/05/22 03:05:18;;;;;;;3.02;1.60;;;;;;;12.10;67.36;98411.95;1707916;83;20165;-75
2022/05/22 03:07:44;;;;;;;1.77;1.65;;;;;;;12.09;67.44;98375.84;1724250;83;21514;-74
2022/05/22 03:10:31;;;;;;;1.55;1.27;;;;;;;12.10;67.42;98359.39;1715454;82;21057;-75
2022/05/22 03:12:57;;;;;;;3.62;1.50;;;;;;;12.11;67.55;98358.84;1720832;82;21072;-75
2022/05/22 03:15:27;;;;;;;2.80;1.45;;;;;;;12.13;67.60;98343.97;1718811;82;20992;-74
2022/05/22 03:17:54;;;;;;;2.25;1.40;;;;;;;12.14;67.67;98367.69;1713521;82;21497;-73
2022/05/22 03:20:22;;;;;;;2.80;2.05;;;;;;;12.18;67.66;98334.46;1701183;83;21160;-74
2022/05/22 03:22:49;;;;;;;5.35;1.82;;;;;;;12.22;67.65;98363.00;1699726;84;21071;-73
2022/05/22 03:25:16;;;;;;;3.67;1.87;;;;;;;12.27;67.59;98361.58;1673733;85;21027;-75
2022/05/22 03:27:44;;;;;;;4.20;2.35;;;;;;;12.30;67.57;98382.55;1700550;83;21460;-72
2022/05/22 03:30:12;;;;;;;1.90;1.67;;;;;;;12.34;67.61;98343.66;1694512;84;21010;-72
2022/05/22 03:32:39;;;;;;;3.00;1.75;;;;;;;12.38;67.60;98345.48;1695118;84;21961;-73
2022/05/22 03:35:07;;;;;;;3.62;2.02;;;;;;;12.43;67.55;98332.45;1694816;84;21019;-74
2022/05/22 03:37:34;;;;;;;3.20;1.60;;;;;;;12.48;67.43;98327.78;1696447;84;21543;-74
2022/05/22 03:40:01;;;;;;;3.12;1.40;;;;;;;12.55;67.34;98338.20;1696329;84;21020;-74
2022/05/22 03:42:28;;;;;;;4.78;1.70;;;;;;;12.59;67.09;98328.42;1696110;84;21097;-74
2022/05/22 03:44:55;;;;;;;2.52;1.45;;;;;;;12.61;66.97;98335.11;1696242;84;21292;-75
2022/05/22 03:47:23;;;;;;;2.33;1.47;;;;;;;12.63;66.90;98337.52;1696204;84;21530;-74
2022/05/22 03:49:57;;;;;;;1.62;1.52;;;;;;;12.62;66.89;98334.56;1693984;84;21054;-73
2022/05/22 03:52:24;;;;;;;1.92;1.72;;;;;;;12.60;67.04;98324.64;1696287;84;21475;-76
2022/05/22 03:54:50;;;;;;;1.80;1.40;;;;;;;12.58;67.35;98318.18;1704005;83;21006;-76
2022/05/22 03:57:17;;;;;;;2.75;2.55;;;;;;;12.56;67.85;98326.33;1696187;84;21499;-76
2022/05/22 03:59:44;;;;;;;5.42;1.65;;;;;;;12.54;68.10;98327.16;1696068;84;21072;-74
2022/05/22 04:02:11;;;;;;;1.70;1.12;;;;;;;12.52;68.23;98315.31;1695273;84;20982;-73
2022/05/22 04:04:40;;;;;;;6.15;2.00;;;;;;;12.52;68.31;98315.85;1668332;86;21506;-78
2022/05/22 04:07:17;;;;;;;8.45;1.65;;;;;;;12.52;68.33;98315.31;1688574;83;21020;-74
2022/05/22 04:09:45;;;;;;;1.70;1.42;;;;;;;12.55;68.40;98323.38;1720901;83;22915;-73
2022/05/22 04:12:19;;;;;;;2.40;1.35;;;;;;;12.56;68.49;98313.65;1701823;84;21247;-73
2022/05/22 04:14:54;;;;;;;4.55;1.42;;;;;;;12.56;68.51;98311.50;1702626;84;32935;-73
2022/05/22 04:17:20;;;;;;;1.45;1.35;;;;;;;12.60;68.67;98313.30;1702970;83;21065;-74
2022/05/22 04:19:47;;;;;;;2.17;1.50;;;;;;;12.64;68.61;98306.76;1699519;84;21575;-74
2022/05/22 04:22:14;;;;;;;1.30;0.98;;;;;;;12.68;68.58;98317.20;1703016;84;21886;-74
2022/05/22 04:27:29;;;;;;;3.58;1.67;;;;;;;12.76;68.52;98295.50;1702724;84;22031;-72
2022/05/22 04:29:58;;;;;;;3.85;1.35;;;;;;;12.79;68.54;98313.23;1702627;84;21045;-73
2022/05/22 04:32:25;;;;;;;5.17;1.70;;;;;;;12.85;68.56;98297.76;1702418;84;21037;-75
2022/05/22 04:34:54;;;;;;;3.33;1.70;;;;;;;12.88;68.54;98290.41;1698201;84;21246;-74
2022/05/22 04:37:21;;;;;;;1.50;1.40;;;;;;;12.90;68.56;98302.48;1698437;84;21013;-76
2022/05/22 04:39:50;;;;;;;3.10;1.60;;;;;;;12.91;68.63;98331.63;1698579;84;20993;-74
2022/05/22 04:42:17;;;;;;;6.25;1.62;;;;;;;12.93;68.64;98307.85;1698453;84;20980;-74
2022/05/22 04:44:44;;;;;;;4.50;2.35;;;;;;;12.93;68.71;98288.95;1701260;84;21036;-74
2022/05/22 04:47:38;;;;;;;3.02;2.00;;;;;;;12.92;68.80;98290.86;1701067;84;21764;-72
2022/05/22 04:50:07;;;;;;;4.35;1.92;;;;;;;12.91;68.76;98294.65;1684817;84;21029;-71
2022/05/22 04:52:34;;;;;;;2.30;1.65;;;;;;;12.92;68.83;98293.55;1698133;84;21017;-71
2022/05/22 04:55:01;;;;;;;1.77;1.67;;;;;;;12.91;69.11;98295.19;1701109;84;21497;-71
2022/05/22 04:57:28;;;;;;;4.45;1.70;;;;;;;12.92;69.17;98292.20;1702593;84;21094;-70
2022/05/22 04:59:54;;;;;;;3.55;1.82;;;;;;;12.94;69.07;98293.27;1702727;84;22056;-70
2022/05/22 05:02:23;;;;;;;4.65;2.52;;;;;;;12.94;68.85;98292.72;1702722;84;20945;-72
2022/05/22 05:04:57;;;;;;;8.58;2.02;;;;;;;12.95;68.73;98298.92;1702084;84;21151;-74
2022/05/22 05:07:25;;;;;;;4.03;2.08;;;;;;;12.96;68.77;98285.66;1701220;84;21110;-75
2022/05/22 05:09:53;;;;;;;1.72;1.60;;;;;;;12.96;68.63;98318.03;1700584;84;21065;-72
2022/05/22 05:12:38;;;;;;;;;;;;;;;12.94;68.64;98314.30;1702032;84;21263;-74
2022/05/22 05:15:07;;;;;;;3.27;2.15;;;;;;;12.89;68.67;98280.67;1702594;84;20139;-74
2022/05/22 05:17:34;;;;;;;4.10;2.70;;;;;;;12.89;68.89;98301.45;1702876;84;21007;-74
2022/05/22 05:20:01;;;;;;;5.12;3.30;;;;;;;12.85;68.78;98325.54;1702786;83;21062;-74
2022/05/22 05:22:32;;;;;;;4.83;2.90;;;;;;;12.83;68.83;98316.94;1702895;84;21049;-74
2022/05/22 05:25:00;;;;;;;5.97;2.90;;;;;;;12.83;68.96;98289.15;1701847;84;21163;-74
2022/05/22 05:27:29;;;;;;;4.67;3.12;;;;;;;12.83;68.76;98288.61;1702901;84;20997;-73
2022/05/22 05:29:57;;;;;;;5.25;3.22;;;;;;;12.84;68.74;98288.86;1701954;84;20991;-73
2022/05/22 05:32:23;;;;;;;5.70;3.47;;;;;;;12.86;68.45;98282.59;1702633;84;21053;-74
2022/05/22 05:34:57;;;;;;;8.10;4.55;;;;;;;12.91;68.37;98291.95;1702596;84;21055;-73
2022/05/22 05:37:26;;;;;;;6.17;4.17;;;;;;;12.97;67.97;98285.91;1702465;84;21186;-73
2022/05/22 05:39:55;;;;;;;5.55;2.98;;;;;;;13.03;67.59;98296.86;1701722;84;21032;-72
2022/05/22 05:42:23;;;;;;;4.92;3.37;;;;;;;13.08;66.66;98299.47;1700688;84;21032;-73
2022/05/22 05:44:50;;;;;;;7.42;3.42;;;;;;;13.12;66.21;98309.14;1702583;84;21102;-74
2022/05/22 05:47:19;;;;;;;7.95;3.75;;;;;;;13.16;65.99;98296.64;1702596;83;21090;-74
2022/05/22 05:50:06;;;;;;;7.60;3.42;;;;;;;13.18;65.55;98309.30;1702491;84;21269;-75
2022/05/22 05:52:49;;;;;;;5.35;4.45;;;;;;;13.20;65.49;98295.73;1702917;84;21039;-74
2022/05/22 05:55:18;;;;;;;6.80;3.75;;;;;;;13.22;65.64;98290.04;1679326;84;20973;-74
2022/05/22 05:58:03;;;;;;;7.95;3.62;;;;;;;13.24;65.79;98281.88;1699014;84;20969;-75
2022/05/22 06:00:30;;;;;;;6.70;4.65;;;;;;;13.26;65.11;98276.98;1702806;84;21005;-75
2022/05/22 06:02:57;;;;;;;6.65;3.17;;;;;;;13.28;64.82;98329.34;1699909;84;21163;-73
2022/05/22 06:05:24;;;;;;;6.62;3.45;;;;;;;13.27;64.52;98298.04;1702315;84;21477;-75
2022/05/22 06:07:52;;;;;;;4.78;2.58;;;;;;;13.28;64.57;98296.40;1680681;84;20956;-74
2022/05/22 06:10:20;;;;;;;5.35;3.08;;;;;;;13.28;64.18;98286.95;1702978;84;21011;-76
2022/05/22 06:12:49;;;;;;;17.32;2.47;;;;;;;13.29;63.60;98285.83;1701480;84;21110;-74
2022/05/22 06:15:16;;;;;;;3.58;2.20;;;;;;;13.29;63.40;98283.12;1700414;84;21204;-72
2022/05/22 06:17:46;;;;;;;4.42;2.65;;;;;;;13.28;62.70;98299.64;1701297;84;20985;-73
2022/05/22 06:20:17;;;;;;;6.53;2.45;;;;;;;13.28;62.82;98284.80;1699313;84;21126;-73
2022/05/22 06:22:46;;;;;;;6.58;2.55;;;;;;;13.27;62.53;98313.69;1718354;83;20979;-72
2022/05/22 06:25:31;;;;;;;5.47;2.70;;;;;;;13.26;62.74;98289.68;1723623;81;21091;-73
2022/05/22 06:28:06;;;;;;;4.70;2.25;;;;;;;13.25;62.77;98319.13;1665200;84;21051;-72
2022/05/22 06:30:41;;;;;;;9.18;2.33;;;;;;;13.26;62.94;98286.98;1674423;85;21034;-73
2022/05/22 06:33:20;;;;;;;5.55;2.83;;;;;;;13.24;63.14;98290.52;1691337;83;21487;-74
2022/05/22 06:36:12;;;;;;;4.45;2.35;;;;;;;13.25;63.39;98286.73;1727448;82;20991;-75
2022/05/22 06:41:43;;;;;;;2.95;2.50;;;;;;;13.18;63.80;98320.89;1688015;84;22177;-74
2022/05/22 06:44:17;;;;;;;7.12;2.83;;;;;;;13.17;64.19;98278.80;1724318;83;21485;-73
2022/05/22 06:46:54;;;;;;;7.40;3.42;;;;;;;13.17;64.97;98288.79;1652223;85;21141;-74
2022/05/22 06:49:31;;;;;;;5.83;2.83;;;;;;;13.11;65.48;98288.09;1702192;84;21125;-73
2022/05/22 06:52:04;;;;;;;6.90;2.67;;;;;;;13.05;65.98;98286.00;1698884;84;20990;-72
2022/05/22 06:54:45;;;;;;;5.37;2.70;;;;;;;13.03;66.42;98288.77;1675914;83;21068;-73
2022/05/22 06:57:22;;;;;;;9.03;3.17;;;;;;;13.00;66.41;98277.20;1616762;87;21092;-73
2022/05/22 06:59:58;;;;;;;5.58;3.40;;;;;;;12.98;66.66;98266.73;1711958;83;20943;-73
2022/05/22 07:02:43;;;;;;;3.35;2.30;;;;;;;13.01;66.33;98285.55;1728159;83;21026;-73
2022/05/22 07:05:18;;;;;;;6.37;2.65;;;;;;;13.00;66.39;98275.85;1727061;82;20997;-74
2022/05/22 07:08:05;;;;;;;4.97;3.05;;;;;;;13.01;66.71;98283.66;1724730;83;22078;-74
2022/05/22 07:13:39;;;;;;;10.28;3.55;;;;;;;12.99;66.85;98285.87;1643010;84;21038;-75
2022/05/22 07:16:24;;;;;;;8.23;2.58;;;;;;;12.97;66.54;98271.87;1691554;84;21552;-74
2022/05/22 07:18:58;;;;;;;1.55;1.40;;;;;;;12.95;66.45;98299.69;1704213;83;21060;-76
2022/05/22 07:21:32;;;;;;;2.35;1.75;;;;;;;12.94;66.41;98270.33;1712393;82;21098;-75
2022/05/22 07:24:04;;;;;;;2.85;1.30;;;;;;;12.96;66.33;98299.14;1720571;83;21481;-75
2022/05/22 07:26:36;;;;;;;4.33;1.87;;;;;;;12.94;66.27;98281.92;1698616;84;20969;-73
2022/05/22 07:29:19;;;;;;;;;;;;;;;12.94;66.42;98288.67;1674566;85;21032;-73
2022/05/22 07:32:06;;;;;;;4.60;1.45;;;;;;;12.96;66.49;98282.95;1699249;84;20183;-73
2022/05/22 07:34:50;;;;;;;1.05;1.05;;;;;;;12.94;66.56;98281.13;1702826;84;21170;-75
2022/05/22 07:37:31;;;;;;;1.90;1.72;;;;;;;12.94;66.23;98286.52;1647457;84;21485;-73
2022/05/22 07:40:00;;;;;;;1.10;1.00;;;;;;;12.94;66.32;98285.17;1699276;84;21011;-74
2022/05/22 07:42:42;;;;;;;3.22;1.07;;;;;;;12.91;66.53;98293.84;1646731;84;21477;-73
2022/05/22 07:45:12;;;;;;;0.90;0.90;;;;;;;12.88;67.02;98316.04;1701932;84;21069;-74
2022/05/22 07:47:58;;;;;;;3.45;2.20;;;;;;;12.87;67.22;98310.38;1699962;84;21416;-75
2022/05/22 07:50:29;;;;;;;0.80;0.80;;;;;;;12.85;66.82;98276.98;1700633;84;21448;-75
2022/05/22 07:53:10;;;;;;;1.82;1.20;;;;;;;12.86;66.85;98289.34;1668414;84;21029;-74
2022/05/22 07:55:45;;;;;;;1.30;1.20;;;;;;;12.85;66.57;98299.11;1695358;84;21470;-74
2022/05/22 07:58:31;;;;;;;1.22;1.10;;;;;;;12.85;67.13;98288.31;1698589;84;21025;-74
2022/05/22 08:01:15;;;;;;;1.07;0.98;;;;;;;12.81;67.49;98305.62;1699510;84;22188;-73
2022/05/22 08:04:01;;;;;;;1.00;0.90;;;;;;;12.77;67.93;98297.08;1698451;84;21056;-75
2022/05/22 08:06:38;;;;;;;0.70;0.70;;;;;;;12.73;68.67;98292.03;1718938;83;21007;-76
2022/05/22 08:09:22;;;;;;;1.50;0.80;;;;;;;12.70;68.94;98305.58;1692751;83;21539;-76
2022/05/22 08:11:50;;;;;;;6.33;0.90;;;;;;;12.70;69.38;98302.88;1691707;84;21063;-76
2022/05/22 08:14:18;;;;;;;7.10;5.65;;;;;;;12.72;69.59;98307.96;1674310;85;21162;-75
2022/05/22 08:16:45;;;;;;;3.70;2.52;;;;;;;12.79;70.05;98297.05;1678727;84;20997;-77
2022/05/22 08:19:15;;;;;;;1.72;1.45;;;;;;;12.83;70.28;98320.17;1700057;84;20952;-75
2022/05/22 08:21:50;;;;;;;2.37;1.42;;;;;;;12.88;70.44;98285.81;1703905;83;21110;-78
2022/05/22 08:24:19;;;;;;;3.62;1.50;;;;;;;12.95;70.76;98279.45;1711564;83;21078;-79
2022/05/22 08:26:48;;;;;;;10.08;1.50;;;;;;;13.02;70.04;98310.10;1711574;83;21248;-73
2022/05/22 08:29:15;;;;;;;3.58;1.70;;;;;;;13.09;70.56;98284.30;1710048;83;21094;-75
2022/05/22 08:31:45;;;;;;;3.55;1.87;;;;;;;13.19;70.09;98273.88;1711596;83;21158;-77
2022/05/22 08:34:13;;;;;;;10.98;2.45;;;;;;;13.29;70.04;98285.83;1711725;83;20919;-75
2022/05/22 08:36:40;;;;;;;1.92;1.60;;;;;;;13.37;69.11;98301.34;1711674;83;21069;-77
2022/05/22 08:39:07;;;;;;;7.45;3.00;;;;;;;13.34;67.81;98346.47;1712302;83;21591;-76
2022/05/22 08:41:39;;;;;;;7.00;4.25;;;;;;;13.30;67.64;98301.47;1718760;83;21509;-76
2022/05/22 08:44:10;;;;;;;5.67;1.90;;;;;;;13.30;67.78;98276.63;1727418;83;21037;-74
2022/05/22 08:47:07;;;;;;;6.12;2.27;;;;;;;13.33;67.88;98291.44;1712792;83;21494;-75
2022/05/22 08:49:43;;;;;;;1.40;1.30;;;;;;;13.34;67.93;98338.92;1711943;83;21003;-72
2022/05/22 08:52:30;;;;;;;1.25;1.15;;;;;;;13.28;67.39;98313.95;1712095;83;21148;-72
2022/05/22 08:55:09;;;;;;;10.55;0.90;;;;;;;13.24;67.44;98298.08;1712098;83;21541;-74
2022/05/22 09:00:41;;;;;;;2.40;2.20;;;;;;;13.12;66.88;98303.73;1711754;83;21030;-74
2022/05/22 09:03:25;;;;;;;5.22;2.10;;;;;;;13.05;67.05;98314.34;1714287;82;21097;-73
2022/05/22 09:05:58;;;;;;;1.60;1.12;;;;;;;13.01;67.67;98304.45;1705862;83;22184;-72
2022/05/22 09:08:40;;;;;;;2.27;1.20;;;;;;;12.98;68.22;98304.51;1710608;83;20982;-73
2022/05/22 09:11:46;;;;;;;1.33;1.17;;;;;;;12.98;69.11;98305.06;1711750;83;21546;-71
2022/05/22 09:14:24;;;;;;;2.17;1.50;;;;;;;12.96;69.72;98302.64;1711571;83;21071;-71
2022/05/22 09:17:12;;;;;;;3.08;1.90;;;;;;;12.93;69.92;98293.01;1684958;83;21078;-73
2022/05/22 09:19:47;;;;;;;2.35;2.00;;;;;;;12.93;70.41;98288.41;1708739;83;21505;-74
2022/05/22 09:22:31;;;;;;;2.75;2.27;;;;;;;12.95;70.35;98298.34;1708587;83;20996;-76
2022/05/22 09:25:12;;;;;;;3.67;2.47;;;;;;;12.96;70.20;98309.39;1721595;83;21563;-72
2022/05/22 09:27:48;;;;;;;4.17;2.60;;;;;;;12.93;70.42;98287.06;1720510;83;21005;-77
2022/05/22 09:30:29;;;;;;;4.53;2.42;;;;;;;12.89;70.57;98296.06;1728197;83;21481;-72
2022/05/22 09:33:04;;;;;;;4.45;2.92;;;;;;;12.84;70.98;98319.89;1751712;81;21174;-75
2022/05/22 09:35:40;;;;;;;3.27;2.77;;;;;;;12.77;71.89;98315.42;1681471;84;20991;-73
2022/05/22 09:38:23;;;;;;;5.22;2.52;;;;;;;12.67;72.97;98319.64;1714960;83;21004;-74
2022/05/22 09:40:54;;;;;;;8.78;2.15;;;;;;;12.55;73.95;98299.10;1726972;83;21010;-73
2022/05/22 09:43:46;;;;;;;4.45;2.65;;;;;;;12.43;75.15;98302.80;1698649;84;21007;-75
2022/05/22 09:46:50;;;;;;;6.42;2.65;;;;;;;12.35;75.64;98297.55;1725576;81;21524;-74
2022/05/22 09:49:41;;;;;;;;;;;;;;;12.22;77.19;98333.36;1730365;82;20972;-74
2022/05/22 09:52:46;;;;;;;5.40;2.40;;;;;;;12.05;79.04;98339.25;1726857;82;20439;-74
2022/05/22 09:55:31;;;;;;;5.65;2.40;;;;;;;11.94;80.85;98321.63;1699198;84;20975;-74
2022/05/22 09:58:21;;;;;;;4.87;2.98;;;;;;;11.86;82.54;98334.95;1722099;83;21011;-75
2022/05/22 10:00:59;;;;;;;4.65;3.95;;;;;;;11.82;83.96;98317.78;1688384;84;21953;-73
2022/05/22 10:03:49;;;;;;;4.90;2.70;;;;;;;11.79;85.17;98320.52;1747904;81;21039;-74
2022/05/22 10:06:21;;;;;;;2.95;2.00;;;;;;;11.77;85.48;98320.80;1703378;83;21611;-74
2022/05/22 10:09:16;;;;;;;2.25;2.00;;;;;;;11.79;85.68;98320.52;1726501;82;21536;-74
2022/05/22 10:12:15;;;;;;;2.67;1.40;;;;;;;11.80;85.69;98335.03;1728080;82;21066;-75
2022/05/22 10:15:11;;;;;;;1.30;1.20;;;;;;;11.82;85.04;98327.20;1725349;83;21798;-75
2022/05/22 10:18:13;;;;;;;2.20;1.45;;;;;;;11.82;84.69;98341.48;1725313;83;28776;-75
2022/05/22 10:21:03;;;;;;;2.15;1.25;;;;;;;11.80;84.07;98340.95;1688377;83;20959;-76
2022/05/22 10:24:17;;;;;;;2.52;1.10;;;;;;;11.84;83.96;98326.38;1687190;83;21067;-73
2022/05/22 10:27:11;;;;;;;;;;;;;;;11.88;83.58;98334.94;1672060;84;21004;-74
2022/05/22 10:29:55;;;;;;;;;;;;;;;11.84;83.39;98360.05;1682147;84;20103;-74
2022/05/22 10:32:54;;;;;;;1.15;1.05;;;;;;;11.79;83.45;98348.27;1681862;84;20159;-75
2022/05/22 10:35:45;;;;;;;1.30;1.20;;;;;;;11.76;84.18;98366.33;1681869;85;21027;-74
2022/05/22 10:38:21;;;;;;;1.00;1.00;;;;;;;11.71;85.04;98372.30;1691813;84;21084;-75
2022/05/22 10:43:38;;;;;;;0.82;0.82;;;;;;;11.55;86.50;98350.71;1683214;84;21169;-78
2022/05/22 10:46:06;;;;;;;2.30;0.95;;;;;;;11.47;87.75;98372.33;1680883;84;20975;-75
2022/05/22 10:48:35;;;;;;;1.02;1.00;;;;;;;11.42;89.46;98358.92;1690606;84;21005;-74
2022/05/22 10:51:13;;;;;;;0.70;0.70;;;;;;;11.37;90.04;98347.67;1681496;84;21569;-78
2022/05/22 10:53:47;;;;;;;2.05;1.07;;;;;;;11.35;91.00;98362.52;1682104;84;21019;-74
2022/05/22 10:56:17;;;;;;;2.00;1.00;;;;;;;11.31;92.15;98358.80;1681095;84;21126;-78
2022/05/22 10:59:08;;;;;;;0.85;0.85;;;;;;;11.31;92.69;98354.23;1680313;84;20909;-76
2022/05/22 11:01:39;;;;;;;1.50;1.40;;;;;;;11.32;93.49;98355.80;1682878;84;21003;-77
2022/05/22 11:04:12;;;;;;;2.05;1.00;;;;;;;11.28;94.22;98362.86;1684936;84;21002;-77
2022/05/22 11:06:52;;;;;;;1.98;1.00;;;;;;;11.23;94.54;98383.64;1687231;84;21140;-76
2022/05/22 11:09:25;;;;;;;2.87;1.60;;;;;;;11.18;95.36;98410.06;1665613;84;21743;-76
2022/05/22 11:11:51;;;;;;;;;;;;;;;11.15;96.26;98372.97;1694277;84;21280;-76
2022/05/22 11:14:21;;;;;;;2.27;1.70;;;;;;;11.14;97.29;98388.05;1680490;85;20446;-75
2022/05/22 11:16:48;;;;;;;1.37;1.27;;;;;;;11.12;97.68;98388.89;1683799;84;21581;-75
2022/05/22 11:19:24;;;;;;;1.50;1.30;;;;;;;11.09;97.82;98369.26;1684810;84;21097;-76
2022/05/22 11:22:27;;;;;;;1.47;1.15;;;;;;;11.07;97.78;98364.72;1683395;84;21564;-78
2022/05/22 11:25:09;;;;;;;2.05;1.30;;;;;;;11.08;98.29;98373.06;1682518;84;21033;-75
2022/05/22 11:27:51;;;;;;;1.47;1.17;;;;;;;11.10;98.31;98382.44;1680783;84;21059;-75
2022/05/22 11:30:52;;;;;;;1.57;1.47;;;;;;;11.12;98.07;98368.70;1680552;84;21497;-75
2022/05/22 11:33:53;;;;;;;2.58;1.52;;;;;;;11.12;97.58;98384.31;1679801;84;20936;-78
2022/05/22 11:36:37;;;;;;;8.83;2.30;;;;;;;11.14;97.28;98397.46;1686388;84;21811;-76
2022/05/22 11:39:50;;;;;;;1.40;1.20;;;;;;;11.16;96.97;98398.80;1667802;84;21594;-75
2022/05/22 11:42:34;;;;;;;1.50;1.40;;;;;;;11.20;96.38;98385.56;1659715;84;21567;-77
2022/05/22 11:45:13;;;;;;;;;;;;;;;11.22;96.03;98394.16;1683786;84;21039;-75
2022/05/22 11:48:08;;;;;;;2.47;0.80;;;;;;;11.24;95.66;98396.81;1729102;82;20134;-78
2022/05/22 11:50:55;;;;;;;1.35;1.20;;;;;;;11.26;95.36;98389.81;1730661;82;21307;-75
2022/05/22 11:54:07;;;;;;;3.75;1.12;;;;;;;11.30;95.16;98405.10;1732287;82;20924;-76
2022/05/22 11:57:10;;;;;;;1.25;1.02;;;;;;;11.33;94.65;98398.33;1727614;82;21057;-77
2022/05/22 11:59:43;;;;;;;1.20;1.10;;;;;;;11.36;94.26;98391.86;1733217;82;20977;-76
2022/05/22 12:02:58;;;;;;;4.05;1.20;;;;;;;11.37;93.54;98400.70;1735097;82;21514;-76
2022/05/22 12:05:53;;;;;;;1.32;1.20;;;;;;;11.37;93.22;98397.47;1728083;82;21101;-76
2022/05/22 12:08:46;;;;;;;3.05;1.02;;;;;;;11.42;93.31;98391.23;1732408;82;21099;-76
2022/05/22 12:11:47;;;;;;;1.40;1.27;;;;;;;11.44;93.09;98406.56;1731935;82;28232;-77
2022/05/22 12:14:32;;;;;;;1.42;1.17;;;;;;;11.46;92.98;98405.74;1729307;82;20975;-77
2022/05/22 12:17:17;;;;;;;1.62;1.50;;;;;;;11.46;92.93;98420.55;1725952;82;21058;-75
2022/05/22 12:19:54;;;;;;;2.60;1.52;;;;;;;11.47;92.77;98407.33;1732605;82;20948;-75
2022/05/22 12:23:07;;;;;;;3.33;1.92;;;;;;;11.46;92.38;98410.33;1727223;82;21045;-75
2022/05/22 12:24:57;;;;;;;1.90;1.80;;;;;;;11.47;92.43;98436.94;1697908;83;21082;-81
2022/05/22 12:27:33;;;;;;;2.87;1.60;;;;;;;11.47;92.00;98428.86;1668579;85;21546;-77
2022/05/22 12:30:27;;;;;;;1.80;1.67;;;;;;;11.47;91.78;98424.82;1694319;83;21533;-76